sensor_id;sensor_type;location;lat;lon;timestamp;P1;durP1;ratioP1;P2;durP2;ratioP2
47239;SDS011;32978;53.586;10.052;2023-03-04T00:00:36;19.92;;;6.95;;
47239;SDS011;32978;53.586;10.052;2023-03-04T00:05:38;17.00;;;6.77;;
47239;SDS011;32978;53.586;10.052;2023-03-04T00:10:34;19.27;;;6.35;;
47239;SDS011;32978;53.586;10.052;2023-03-04T00:15:30;14.55;;;6.32;;
47239;SDS011;32978;53.586;10.052;2023-03-04T00:20:27;12.10;;;6.22;;
47239;SDS011;32978;53.586;10.052;2023-03-04T00:25:23;14.90;;;6.55;;
47239;SDS011;32978;53.586;10.052;2023-03-04T00:30:20;16.42;;;6.38;;
47239;SDS011;32978;53.586;10.052;2023-03-04T00:35:16;14.25;;;6.38;;
47239;SDS011;32978;53.586;10.052;2023-03-04T00:40:13;11.35;;;5.93;;
47239;SDS011;32978;53.586;10.052;2023-03-04T00:45:09;19.15;;;6.47;;
47239;SDS011;32978;53.586;10.052;2023-03-04T00:50:06;14.70;;;6.28;;
47239;SDS011;32978;53.586;10.052;2023-03-04T00:55:03;12.90;;;6.32;;
47239;SDS011;32978;53.586;10.052;2023-03-04T01:00:00;16.30;;;6.25;;
47239;SDS011;32978;53.586;10.052;2023-03-04T01:04:56;10.60;;;5.72;;
47239;SDS011;32978;53.586;10.052;2023-03-04T01:09:53;12.48;;;5.90;;
47239;SDS011;32978;53.586;10.052;2023-03-04T01:14:49;7.18;;;5.43;;
47239;SDS011;32978;53.586;10.052;2023-03-04T01:19:48;14.18;;;5.78;;
47239;SDS011;32978;53.586;10.052;2023-03-04T01:24:45;10.60;;;5.07;;
47239;SDS011;32978;53.586;10.052;2023-03-04T01:29:41;10.27;;;5.60;;
47239;SDS011;32978;53.586;10.052;2023-03-04T01:34:37;15.80;;;5.40;;
47239;SDS011;32978;53.586;10.052;2023-03-04T01:39:34;13.30;;;5.05;;
47239;SDS011;32978;53.586;10.052;2023-03-04T01:44:31;11.18;;;5.70;;
47239;SDS011;32978;53.586;10.052;2023-03-04T01:49:28;12.15;;;5.95;;
47239;SDS011;32978;53.586;10.052;2023-03-04T01:54:24;11.90;;;5.57;;
47239;SDS011;32978;53.586;10.052;2023-03-04T01:59:22;11.02;;;5.95;;
47239;SDS011;32978;53.586;10.052;2023-03-04T02:04:21;11.85;;;5.68;;
47239;SDS011;32978;53.586;10.052;2023-03-04T02:09:24;11.23;;;5.43;;
47239;SDS011;32978;53.586;10.052;2023-03-04T02:14:20;10.55;;;6.10;;
47239;SDS011;32978;53.586;10.052;2023-03-04T02:24:40;13.18;;;5.95;;
47239;SDS011;32978;53.586;10.052;2023-03-04T02:29:45;12.82;;;5.85;;
47239;SDS011;32978;53.586;10.052;2023-03-04T02:34:44;15.90;;;6.03;;
47239;SDS011;32978;53.586;10.052;2023-03-04T02:39:44;17.25;;;6.20;;
47239;SDS011;32978;53.586;10.052;2023-03-04T02:44:43;11.50;;;5.38;;
47239;SDS011;32978;53.586;10.052;2023-03-04T02:49:42;10.00;;;5.90;;
47239;SDS011;32978;53.586;10.052;2023-03-04T02:54:39;7.63;;;5.78;;
47239;SDS011;32978;53.586;10.052;2023-03-04T02:59:37;20.38;;;7.10;;
47239;SDS011;32978;53.586;10.052;2023-03-04T03:04:35;13.02;;;6.43;;
47239;SDS011;32978;53.586;10.052;2023-03-04T03:09:34;12.25;;;6.15;;
47239;SDS011;32978;53.586;10.052;2023-03-04T03:14:30;15.40;;;5.85;;
47239;SDS011;32978;53.586;10.052;2023-03-04T03:19:26;9.82;;;6.30;;
47239;SDS011;32978;53.586;10.052;2023-03-04T03:24:23;12.23;;;6.40;;
47239;SDS011;32978;53.586;10.052;2023-03-04T03:29:19;14.15;;;5.93;;
47239;SDS011;32978;53.586;10.052;2023-03-04T03:34:16;15.35;;;6.05;;
47239;SDS011;32978;53.586;10.052;2023-03-04T03:39:12;13.85;;;6.63;;
47239;SDS011;32978;53.586;10.052;2023-03-04T03:44:10;11.95;;;5.80;;
47239;SDS011;32978;53.586;10.052;2023-03-04T03:49:07;10.85;;;5.30;;
47239;SDS011;32978;53.586;10.052;2023-03-04T03:54:03;9.60;;;5.43;;
47239;SDS011;32978;53.586;10.052;2023-03-04T03:59:00;12.75;;;5.88;;
47239;SDS011;32978;53.586;10.052;2023-03-04T04:03:56;15.45;;;5.70;;
47239;SDS011;32978;53.586;10.052;2023-03-04T04:08:53;11.40;;;6.70;;
47239;SDS011;32978;53.586;10.052;2023-03-04T04:13:49;11.90;;;6.72;;
47239;SDS011;32978;53.586;10.052;2023-03-04T04:18:46;19.85;;;7.75;;
47239;SDS011;32978;53.586;10.052;2023-03-04T04:23:42;12.15;;;6.25;;
47239;SDS011;32978;53.586;10.052;2023-03-04T04:28:38;13.77;;;6.78;;
47239;SDS011;32978;53.586;10.052;2023-03-04T04:33:35;11.48;;;5.90;;
47239;SDS011;32978;53.586;10.052;2023-03-04T04:38:32;14.07;;;6.68;;
47239;SDS011;32978;53.586;10.052;2023-03-04T04:43:28;13.02;;;6.15;;
47239;SDS011;32978;53.586;10.052;2023-03-04T04:48:25;10.90;;;6.13;;
47239;SDS011;32978;53.586;10.052;2023-03-04T04:53:21;16.00;;;6.30;;
47239;SDS011;32978;53.586;10.052;2023-03-04T04:58:18;10.38;;;5.72;;
47239;SDS011;32978;53.586;10.052;2023-03-04T05:03:14;14.95;;;6.45;;
47239;SDS011;32978;53.586;10.052;2023-03-04T05:08:13;14.77;;;5.80;;
47239;SDS011;32978;53.586;10.052;2023-03-04T05:13:10;14.15;;;6.38;;
47239;SDS011;32978;53.586;10.052;2023-03-04T05:18:06;12.68;;;6.38;;
47239;SDS011;32978;53.586;10.052;2023-03-04T05:23:02;20.70;;;6.57;;
47239;SDS011;32978;53.586;10.052;2023-03-04T05:27:59;16.83;;;6.45;;
47239;SDS011;32978;53.586;10.052;2023-03-04T05:32:57;12.77;;;6.63;;
47239;SDS011;32978;53.586;10.052;2023-03-04T05:37:53;12.48;;;6.88;;
47239;SDS011;32978;53.586;10.052;2023-03-04T05:42:50;16.23;;;7.70;;
47239;SDS011;32978;53.586;10.052;2023-03-04T05:47:46;14.88;;;7.60;;
47239;SDS011;32978;53.586;10.052;2023-03-04T05:52:43;16.15;;;6.88;;
47239;SDS011;32978;53.586;10.052;2023-03-04T05:57:39;24.95;;;8.80;;
47239;SDS011;32978;53.586;10.052;2023-03-04T06:02:36;13.23;;;7.15;;
47239;SDS011;32978;53.586;10.052;2023-03-04T06:07:33;21.48;;;7.05;;
47239;SDS011;32978;53.586;10.052;2023-03-04T06:12:29;19.15;;;6.53;;
47239;SDS011;32978;53.586;10.052;2023-03-04T06:17:26;21.85;;;6.82;;
47239;SDS011;32978;53.586;10.052;2023-03-04T06:22:22;17.17;;;6.28;;
47239;SDS011;32978;53.586;10.052;2023-03-04T06:27:19;24.42;;;6.68;;
47239;SDS011;32978;53.586;10.052;2023-03-04T06:32:15;28.20;;;8.60;;
47239;SDS011;32978;53.586;10.052;2023-03-04T06:37:12;24.40;;;6.05;;
47239;SDS011;32978;53.586;10.052;2023-03-04T06:42:08;21.92;;;6.63;;
47239;SDS011;32978;53.586;10.052;2023-03-04T06:47:05;21.58;;;7.60;;
47239;SDS011;32978;53.586;10.052;2023-03-04T06:52:02;16.23;;;6.18;;
47239;SDS011;32978;53.586;10.052;2023-03-04T06:56:58;16.52;;;6.28;;
47239;SDS011;32978;53.586;10.052;2023-03-04T07:01:55;22.85;;;6.47;;
47239;SDS011;32978;53.586;10.052;2023-03-04T07:06:51;17.90;;;6.88;;
47239;SDS011;32978;53.586;10.052;2023-03-04T07:11:48;25.67;;;6.13;;
47239;SDS011;32978;53.586;10.052;2023-03-04T07:16:44;13.27;;;5.28;;
47239;SDS011;32978;53.586;10.052;2023-03-04T07:21:40;22.88;;;6.97;;
47239;SDS011;32978;53.586;10.052;2023-03-04T07:26:37;17.88;;;6.75;;
47239;SDS011;32978;53.586;10.052;2023-03-04T07:31:34;21.52;;;6.50;;
47239;SDS011;32978;53.586;10.052;2023-03-04T07:36:32;18.27;;;6.28;;
47239;SDS011;32978;53.586;10.052;2023-03-04T07:41:30;21.95;;;6.60;;
47239;SDS011;32978;53.586;10.052;2023-03-04T07:46:27;15.32;;;6.38;;
47239;SDS011;32978;53.586;10.052;2023-03-04T07:51:24;20.15;;;6.60;;
47239;SDS011;32978;53.586;10.052;2023-03-04T07:56:23;17.17;;;6.68;;
47239;SDS011;32978;53.586;10.052;2023-03-04T08:01:22;21.00;;;6.50;;
47239;SDS011;32978;53.586;10.052;2023-03-04T08:06:21;17.50;;;7.20;;
47239;SDS011;32978;53.586;10.052;2023-03-04T08:11:18;25.55;;;7.90;;
47239;SDS011;32978;53.586;10.052;2023-03-04T08:16:16;22.60;;;7.10;;
47239;SDS011;32978;53.586;10.052;2023-03-04T08:21:14;17.88;;;6.65;;
47239;SDS011;32978;53.586;10.052;2023-03-04T08:26:17;23.30;;;7.18;;
47239;SDS011;32978;53.586;10.052;2023-03-04T08:31:22;16.98;;;7.07;;
47239;SDS011;32978;53.586;10.052;2023-03-04T08:36:19;17.95;;;7.68;;
47239;SDS011;32978;53.586;10.052;2023-03-04T08:41:16;23.88;;;7.82;;
47239;SDS011;32978;53.586;10.052;2023-03-04T08:46:12;19.83;;;8.88;;
47239;SDS011;32978;53.586;10.052;2023-03-04T08:51:10;23.08;;;7.78;;
47239;SDS011;32978;53.586;10.052;2023-03-04T08:56:08;21.15;;;6.63;;
47239;SDS011;32978;53.586;10.052;2023-03-04T09:01:08;19.67;;;7.68;;
47239;SDS011;32978;53.586;10.052;2023-03-04T09:06:07;19.90;;;7.80;;
47239;SDS011;32978;53.586;10.052;2023-03-04T09:11:05;29.00;;;9.20;;
47239;SDS011;32978;53.586;10.052;2023-03-04T09:16:04;31.98;;;9.00;;
47239;SDS011;32978;53.586;10.052;2023-03-04T09:21:06;29.63;;;7.57;;
47239;SDS011;32978;53.586;10.052;2023-03-04T09:26:13;24.20;;;7.00;;
47239;SDS011;32978;53.586;10.052;2023-03-04T09:31:18;20.15;;;7.90;;
47239;SDS011;32978;53.586;10.052;2023-03-04T09:36:15;16.30;;;7.13;;
47239;SDS011;32978;53.586;10.052;2023-03-04T09:41:17;25.48;;;8.43;;
47239;SDS011;32978;53.586;10.052;2023-03-04T09:46:28;24.40;;;8.13;;
47239;SDS011;32978;53.586;10.052;2023-03-04T09:51:36;21.65;;;8.30;;
47239;SDS011;32978;53.586;10.052;2023-03-04T10:02:42;21.75;;;6.85;;
47239;SDS011;32978;53.586;10.052;2023-03-04T10:07:17;20.08;;;7.38;;
47239;SDS011;32978;53.586;10.052;2023-03-04T10:12:18;21.75;;;7.25;;
47239;SDS011;32978;53.586;10.052;2023-03-04T10:17:35;24.75;;;7.93;;
47239;SDS011;32978;53.586;10.052;2023-03-04T10:22:45;39.92;;;8.35;;
47239;SDS011;32978;53.586;10.052;2023-03-04T10:27:49;19.55;;;7.65;;
47239;SDS011;32978;53.586;10.052;2023-03-04T10:32:51;30.55;;;8.00;;
47239;SDS011;32978;53.586;10.052;2023-03-04T10:37:48;23.67;;;9.10;;
47239;SDS011;32978;53.586;10.052;2023-03-04T10:42:47;20.92;;;8.65;;
47239;SDS011;32978;53.586;10.052;2023-03-04T10:47:50;29.80;;;8.20;;
47239;SDS011;32978;53.586;10.052;2023-03-04T10:52:48;23.70;;;8.20;;
47239;SDS011;32978;53.586;10.052;2023-03-04T10:57:48;22.40;;;8.10;;
47239;SDS011;32978;53.586;10.052;2023-03-04T11:02:51;23.25;;;8.70;;
47239;SDS011;32978;53.586;10.052;2023-03-04T11:07:51;23.13;;;7.65;;
47239;SDS011;32978;53.586;10.052;2023-03-04T11:13:11;17.63;;;7.50;;
47239;SDS011;32978;53.586;10.052;2023-03-04T11:18:09;27.20;;;9.57;;
47239;SDS011;32978;53.586;10.052;2023-03-04T11:23:52;19.38;;;7.90;;
47239;SDS011;32978;53.586;10.052;2023-03-04T11:28:58;20.15;;;8.07;;
47239;SDS011;32978;53.586;10.052;2023-03-04T11:34:02;14.95;;;7.65;;
47239;SDS011;32978;53.586;10.052;2023-03-04T11:39:23;17.88;;;7.03;;
47239;SDS011;32978;53.586;10.052;2023-03-04T11:44:28;13.07;;;7.55;;
47239;SDS011;32978;53.586;10.052;2023-03-04T11:49:41;27.23;;;8.93;;
47239;SDS011;32978;53.586;10.052;2023-03-04T11:54:54;17.27;;;8.15;;
47239;SDS011;32978;53.586;10.052;2023-03-04T12:00:23;18.65;;;8.02;;
47239;SDS011;32978;53.586;10.052;2023-03-04T12:10:48;21.67;;;7.57;;
47239;SDS011;32978;53.586;10.052;2023-03-04T12:21:18;20.70;;;7.43;;
47239;SDS011;32978;53.586;10.052;2023-03-04T12:42:24;21.08;;;8.07;;
47239;SDS011;32978;53.586;10.052;2023-03-04T12:47:48;20.80;;;7.43;;
47239;SDS011;32978;53.586;10.052;2023-03-04T12:53:00;22.50;;;8.80;;
47239;SDS011;32978;53.586;10.052;2023-03-04T12:58:14;19.13;;;6.57;;
47239;SDS011;32978;53.586;10.052;2023-03-04T13:14:06;24.77;;;8.48;;
47239;SDS011;32978;53.586;10.052;2023-03-04T13:29:47;16.25;;;6.15;;
47239;SDS011;32978;53.586;10.052;2023-03-04T13:34:48;18.67;;;8.23;;
47239;SDS011;32978;53.586;10.052;2023-03-04T13:39:47;25.38;;;7.38;;
47239;SDS011;32978;53.586;10.052;2023-03-04T13:45:28;15.90;;;8.93;;
47239;SDS011;32978;53.586;10.052;2023-03-04T13:50:37;19.35;;;7.88;;
47239;SDS011;32978;53.586;10.052;2023-03-04T13:55:40;24.90;;;7.10;;
47239;SDS011;32978;53.586;10.052;2023-03-04T14:00:44;22.35;;;9.00;;
47239;SDS011;32978;53.586;10.052;2023-03-04T14:05:43;18.15;;;7.57;;
47239;SDS011;32978;53.586;10.052;2023-03-04T14:10:40;19.73;;;7.25;;
47239;SDS011;32978;53.586;10.052;2023-03-04T14:15:36;14.50;;;7.35;;
47239;SDS011;32978;53.586;10.052;2023-03-04T14:20:36;19.73;;;6.60;;
47239;SDS011;32978;53.586;10.052;2023-03-04T14:25:34;13.38;;;6.18;;
47239;SDS011;32978;53.586;10.052;2023-03-04T14:30:32;13.57;;;6.72;;
47239;SDS011;32978;53.586;10.052;2023-03-04T14:35:38;16.75;;;7.57;;
47239;SDS011;32978;53.586;10.052;2023-03-04T14:40:46;18.38;;;6.93;;
47239;SDS011;32978;53.586;10.052;2023-03-04T14:45:49;14.35;;;6.45;;
47239;SDS011;32978;53.586;10.052;2023-03-04T14:50:49;11.98;;;6.35;;
47239;SDS011;32978;53.586;10.052;2023-03-04T15:01:06;23.65;;;8.48;;
47239;SDS011;32978;53.586;10.052;2023-03-04T15:06:15;19.50;;;7.63;;
47239;SDS011;32978;53.586;10.052;2023-03-04T15:11:23;20.13;;;7.13;;
47239;SDS011;32978;53.586;10.052;2023-03-04T15:16:23;17.88;;;6.53;;
47239;SDS011;32978;53.586;10.052;2023-03-04T15:26:27;15.48;;;5.85;;
47239;SDS011;32978;53.586;10.052;2023-03-04T15:31:23;14.20;;;6.65;;
47239;SDS011;32978;53.586;10.052;2023-03-04T15:36:23;21.48;;;7.55;;
47239;SDS011;32978;53.586;10.052;2023-03-04T15:41:21;18.98;;;7.18;;
47239;SDS011;32978;53.586;10.052;2023-03-04T15:46:20;14.32;;;6.47;;
47239;SDS011;32978;53.586;10.052;2023-03-04T15:51:19;26.35;;;6.25;;
47239;SDS011;32978;53.586;10.052;2023-03-04T15:56:24;21.33;;;6.82;;
47239;SDS011;32978;53.586;10.052;2023-03-04T16:01:23;26.95;;;6.43;;
47239;SDS011;32978;53.586;10.052;2023-03-04T16:06:20;23.90;;;6.85;;
47239;SDS011;32978;53.586;10.052;2023-03-04T16:11:22;16.60;;;5.97;;
47239;SDS011;32978;53.586;10.052;2023-03-04T16:16:21;16.55;;;6.10;;
47239;SDS011;32978;53.586;10.052;2023-03-04T16:21:18;14.77;;;7.70;;
47239;SDS011;32978;53.586;10.052;2023-03-04T16:26:21;11.45;;;5.70;;
47239;SDS011;32978;53.586;10.052;2023-03-04T16:31:20;13.88;;;5.82;;
47239;SDS011;32978;53.586;10.052;2023-03-04T16:41:15;16.80;;;8.40;;
47239;SDS011;32978;53.586;10.052;2023-03-04T16:46:15;18.85;;;6.75;;
47239;SDS011;32978;53.586;10.052;2023-03-04T16:51:14;14.38;;;5.85;;
47239;SDS011;32978;53.586;10.052;2023-03-04T16:56:17;16.58;;;7.55;;
47239;SDS011;32978;53.586;10.052;2023-03-04T17:06:14;17.58;;;7.00;;
47239;SDS011;32978;53.586;10.052;2023-03-04T17:11:12;11.65;;;6.35;;
47239;SDS011;32978;53.586;10.052;2023-03-04T17:16:12;16.15;;;7.82;;
47239;SDS011;32978;53.586;10.052;2023-03-04T17:21:11;12.75;;;6.35;;
47239;SDS011;32978;53.586;10.052;2023-03-04T17:26:10;15.70;;;6.40;;
47239;SDS011;32978;53.586;10.052;2023-03-04T17:31:10;17.70;;;7.05;;
47239;SDS011;32978;53.586;10.052;2023-03-04T17:36:11;10.05;;;6.10;;
47239;SDS011;32978;53.586;10.052;2023-03-04T17:41:11;14.55;;;6.55;;
47239;SDS011;32978;53.586;10.052;2023-03-04T17:46:12;15.82;;;7.47;;
47239;SDS011;32978;53.586;10.052;2023-03-04T17:51:10;20.33;;;7.55;;
47239;SDS011;32978;53.586;10.052;2023-03-04T17:56:07;27.33;;;7.50;;
47239;SDS011;32978;53.586;10.052;2023-03-04T18:01:14;17.75;;;6.85;;
47239;SDS011;32978;53.586;10.052;2023-03-04T18:06:12;11.73;;;7.15;;
47239;SDS011;32978;53.586;10.052;2023-03-04T18:11:09;14.00;;;6.10;;
47239;SDS011;32978;53.586;10.052;2023-03-04T18:16:07;20.23;;;7.80;;
47239;SDS011;32978;53.586;10.052;2023-03-04T18:21:04;12.73;;;6.07;;
47239;SDS011;32978;53.586;10.052;2023-03-04T18:26:01;14.77;;;6.00;;
47239;SDS011;32978;53.586;10.052;2023-03-04T18:30:59;20.35;;;7.72;;
47239;SDS011;32978;53.586;10.052;2023-03-04T18:36:00;15.88;;;7.65;;
47239;SDS011;32978;53.586;10.052;2023-03-04T18:41:02;19.60;;;8.95;;
47239;SDS011;32978;53.586;10.052;2023-03-04T18:46:04;20.75;;;8.30;;
47239;SDS011;32978;53.586;10.052;2023-03-04T18:51:01;17.25;;;6.43;;
47239;SDS011;32978;53.586;10.052;2023-03-04T18:55:58;11.88;;;6.38;;
47239;SDS011;32978;53.586;10.052;2023-03-04T19:00:58;13.45;;;7.00;;
47239;SDS011;32978;53.586;10.052;2023-03-04T19:05:57;14.23;;;6.88;;
47239;SDS011;32978;53.586;10.052;2023-03-04T19:10:54;16.00;;;7.10;;
47239;SDS011;32978;53.586;10.052;2023-03-04T19:15:51;15.43;;;7.10;;
47239;SDS011;32978;53.586;10.052;2023-03-04T19:20:49;7.85;;;5.80;;
47239;SDS011;32978;53.586;10.052;2023-03-04T19:25:46;12.07;;;6.10;;
47239;SDS011;32978;53.586;10.052;2023-03-04T19:30:42;10.48;;;5.35;;
47239;SDS011;32978;53.586;10.052;2023-03-04T19:35:40;11.23;;;6.25;;
47239;SDS011;32978;53.586;10.052;2023-03-04T19:40:38;12.63;;;5.68;;
47239;SDS011;32978;53.586;10.052;2023-03-04T19:45:35;12.90;;;5.90;;
47239;SDS011;32978;53.586;10.052;2023-03-04T19:50:32;17.98;;;6.28;;
47239;SDS011;32978;53.586;10.052;2023-03-04T19:55:28;9.75;;;5.47;;
47239;SDS011;32978;53.586;10.052;2023-03-04T20:00:25;18.55;;;7.50;;
47239;SDS011;32978;53.586;10.052;2023-03-04T20:05:21;12.38;;;6.15;;
47239;SDS011;32978;53.586;10.052;2023-03-04T20:10:17;9.68;;;5.75;;
47239;SDS011;32978;53.586;10.052;2023-03-04T20:15:14;13.52;;;7.60;;
47239;SDS011;32978;53.586;10.052;2023-03-04T20:20:11;12.68;;;7.10;;
47239;SDS011;32978;53.586;10.052;2023-03-04T20:25:09;11.15;;;5.53;;
47239;SDS011;32978;53.586;10.052;2023-03-04T20:30:05;16.15;;;6.75;;
47239;SDS011;32978;53.586;10.052;2023-03-04T20:35:02;9.40;;;5.28;;
47239;SDS011;32978;53.586;10.052;2023-03-04T20:39:59;12.40;;;5.68;;
47239;SDS011;32978;53.586;10.052;2023-03-04T20:44:55;11.38;;;5.32;;
47239;SDS011;32978;53.586;10.052;2023-03-04T20:49:52;11.50;;;6.47;;
47239;SDS011;32978;53.586;10.052;2023-03-04T20:54:48;10.25;;;5.40;;
47239;SDS011;32978;53.586;10.052;2023-03-04T20:59:45;11.88;;;5.10;;
47239;SDS011;32978;53.586;10.052;2023-03-04T21:04:41;13.63;;;5.70;;
47239;SDS011;32978;53.586;10.052;2023-03-04T21:09:39;11.93;;;5.15;;
47239;SDS011;32978;53.586;10.052;2023-03-04T21:14:35;11.63;;;4.63;;
47239;SDS011;32978;53.586;10.052;2023-03-04T21:19:33;16.35;;;6.22;;
47239;SDS011;32978;53.586;10.052;2023-03-04T21:24:32;12.50;;;5.68;;
47239;SDS011;32978;53.586;10.052;2023-03-04T21:29:30;11.20;;;5.22;;
47239;SDS011;32978;53.586;10.052;2023-03-04T21:34:34;14.68;;;5.63;;
47239;SDS011;32978;53.586;10.052;2023-03-04T21:39:34;8.27;;;5.15;;
47239;SDS011;32978;53.586;10.052;2023-03-04T21:44:31;8.90;;;4.70;;
47239;SDS011;32978;53.586;10.052;2023-03-04T21:54:40;10.15;;;4.40;;
47239;SDS011;32978;53.586;10.052;2023-03-04T21:59:37;12.15;;;5.25;;
47239;SDS011;32978;53.586;10.052;2023-03-04T22:04:33;20.58;;;6.30;;
47239;SDS011;32978;53.586;10.052;2023-03-04T22:09:30;15.73;;;4.95;;
47239;SDS011;32978;53.586;10.052;2023-03-04T22:14:27;10.52;;;5.40;;
47239;SDS011;32978;53.586;10.052;2023-03-04T22:19:25;6.70;;;4.65;;
47239;SDS011;32978;53.586;10.052;2023-03-04T22:24:25;8.50;;;5.20;;
47239;SDS011;32978;53.586;10.052;2023-03-04T22:29:21;12.27;;;5.63;;
47239;SDS011;32978;53.586;10.052;2023-03-04T22:34:17;11.93;;;5.68;;
47239;SDS011;32978;53.586;10.052;2023-03-04T22:39:15;8.85;;;5.10;;
47239;SDS011;32978;53.586;10.052;2023-03-04T22:44:17;10.90;;;4.55;;
47239;SDS011;32978;53.586;10.052;2023-03-04T22:49:14;11.80;;;5.35;;
47239;SDS011;32978;53.586;10.052;2023-03-04T22:54:13;13.10;;;5.90;;
47239;SDS011;32978;53.586;10.052;2023-03-04T22:59:11;11.90;;;4.65;;
47239;SDS011;32978;53.586;10.052;2023-03-04T23:04:08;9.65;;;4.78;;
47239;SDS011;32978;53.586;10.052;2023-03-04T23:09:05;12.50;;;5.07;;
47239;SDS011;32978;53.586;10.052;2023-03-04T23:14:02;7.85;;;4.57;;
47239;SDS011;32978;53.586;10.052;2023-03-04T23:19:02;10.50;;;4.72;;
47239;SDS011;32978;53.586;10.052;2023-03-04T23:24:00;14.82;;;5.00;;
47239;SDS011;32978;53.586;10.052;2023-03-04T23:28:57;10.73;;;4.50;;
47239;SDS011;32978;53.586;10.052;2023-03-04T23:33:56;17.65;;;5.25;;
47239;SDS011;32978;53.586;10.052;2023-03-04T23:38:54;7.72;;;5.00;;
47239;SDS011;32978;53.586;10.052;2023-03-04T23:43:52;12.40;;;5.00;;
47239;SDS011;32978;53.586;10.052;2023-03-04T23:48:49;9.77;;;4.38;;
47239;SDS011;32978;53.586;10.052;2023-03-04T23:53:47;7.63;;;4.00;;
47239;SDS011;32978;53.586;10.052;2023-03-04T23:58:44;10.85;;;4.25;;
